sensor_id;sensor_type;location;lat;lon;timestamp;temperature;humidity
79356;SHT31;68825;51.978;5.654;2023-04-03T00:01:26;6.4;56.3
79356;SHT31;68825;51.978;5.654;2023-04-03T00:03:55;6.4;56.9
79356;SHT31;68825;51.978;5.654;2023-04-03T00:06:24;6.3;56.5
79356;SHT31;68825;51.978;5.654;2023-04-03T00:08:54;6.3;56.7
79356;SHT31;68825;51.978;5.654;2023-04-03T00:11:23;6.3;57.2
79356;SHT31;68825;51.978;5.654;2023-04-03T00:13:52;6.2;56.7
79356;SHT31;68825;51.978;5.654;2023-04-03T00:16:21;6.2;57.0
79356;SHT31;68825;51.978;5.654;2023-04-03T00:18:49;6.2;56.9
79356;SHT31;68825;51.978;5.654;2023-04-03T00:21:18;6.1;57.0
79356;SHT31;68825;51.978;5.654;2023-04-03T00:23:48;6.1;56.8
79356;SHT31;68825;51.978;5.654;2023-04-03T00:26:17;6.1;57.2
79356;SHT31;68825;51.978;5.654;2023-04-03T00:28:47;6.1;57.3
79356;SHT31;68825;51.978;5.654;2023-04-03T00:31:17;6.0;57.2
79356;SHT31;68825;51.978;5.654;2023-04-03T00:33:46;6.0;57.8
79356;SHT31;68825;51.978;5.654;2023-04-03T00:36:14;6.0;57.6
79356;SHT31;68825;51.978;5.654;2023-04-03T00:38:43;5.9;57.3
79356;SHT31;68825;51.978;5.654;2023-04-03T00:41:11;5.9;57.7
79356;SHT31;68825;51.978;5.654;2023-04-03T00:43:40;5.9;58.0
79356;SHT31;68825;51.978;5.654;2023-04-03T00:46:08;5.9;57.6
79356;SHT31;68825;51.978;5.654;2023-04-03T00:48:41;5.9;57.8
79356;SHT31;68825;51.978;5.654;2023-04-03T00:51:13;5.8;57.6
79356;SHT31;68825;51.978;5.654;2023-04-03T00:53:47;5.8;57.8
79356;SHT31;68825;51.978;5.654;2023-04-03T00:56:18;5.8;58.1
79356;SHT31;68825;51.978;5.654;2023-04-03T00:58:51;5.8;58.3
79356;SHT31;68825;51.978;5.654;2023-04-03T01:01:24;5.8;58.4
79356;SHT31;68825;51.978;5.654;2023-04-03T01:03:53;5.8;58.1
79356;SHT31;68825;51.978;5.654;2023-04-03T01:06:26;5.8;58.2
79356;SHT31;68825;51.978;5.654;2023-04-03T01:08:57;5.8;58.0
79356;SHT31;68825;51.978;5.654;2023-04-03T01:11:27;5.8;59.0
79356;SHT31;68825;51.978;5.654;2023-04-03T01:13:57;5.8;58.3
79356;SHT31;68825;51.978;5.654;2023-04-03T01:16:28;5.8;58.0
79356;SHT31;68825;51.978;5.654;2023-04-03T01:18:58;5.7;58.2
79356;SHT31;68825;51.978;5.654;2023-04-03T01:22:13;5.7;58.2
79356;SHT31;68825;51.978;5.654;2023-04-03T01:24:47;5.7;58.5
79356;SHT31;68825;51.978;5.654;2023-04-03T01:27:19;5.7;58.3
79356;SHT31;68825;51.978;5.654;2023-04-03T01:29:49;5.7;58.5
79356;SHT31;68825;51.978;5.654;2023-04-03T01:32:17;5.6;58.7
79356;SHT31;68825;51.978;5.654;2023-04-03T01:34:46;5.6;58.8
79356;SHT31;68825;51.978;5.654;2023-04-03T01:37:15;5.6;59.0
79356;SHT31;68825;51.978;5.654;2023-04-03T01:39:43;5.5;59.2
79356;SHT31;68825;51.978;5.654;2023-04-03T01:42:12;5.5;59.3
79356;SHT31;68825;51.978;5.654;2023-04-03T01:44:42;5.5;59.2
79356;SHT31;68825;51.978;5.654;2023-04-03T01:47:11;5.5;59.4
79356;SHT31;68825;51.978;5.654;2023-04-03T01:49:40;5.4;59.7
79356;SHT31;68825;51.978;5.654;2023-04-03T01:52:08;5.4;59.7
79356;SHT31;68825;51.978;5.654;2023-04-03T01:54:37;5.4;60.3
79356;SHT31;68825;51.978;5.654;2023-04-03T01:57:06;5.3;60.5
79356;SHT31;68825;51.978;5.654;2023-04-03T01:59:34;5.3;60.5
79356;SHT31;68825;51.978;5.654;2023-04-03T02:02:03;5.3;60.6
79356;SHT31;68825;51.978;5.654;2023-04-03T02:04:32;5.3;60.7
79356;SHT31;68825;51.978;5.654;2023-04-03T02:07:00;5.3;60.9
79356;SHT31;68825;51.978;5.654;2023-04-03T02:09:29;5.3;60.8
79356;SHT31;68825;51.978;5.654;2023-04-03T02:11:58;5.3;60.9
79356;SHT31;68825;51.978;5.654;2023-04-03T02:14:26;5.3;61.0
79356;SHT31;68825;51.978;5.654;2023-04-03T02:16:56;5.3;61.0
79356;SHT31;68825;51.978;5.654;2023-04-03T02:19:24;5.3;61.6
79356;SHT31;68825;51.978;5.654;2023-04-03T02:21:53;5.2;61.3
79356;SHT31;68825;51.978;5.654;2023-04-03T02:24:21;5.2;61.7
79356;SHT31;68825;51.978;5.654;2023-04-03T02:26:50;5.2;62.1
79356;SHT31;68825;51.978;5.654;2023-04-03T02:29:19;5.2;61.8
79356;SHT31;68825;51.978;5.654;2023-04-03T02:31:48;5.2;62.0
79356;SHT31;68825;51.978;5.654;2023-04-03T02:34:17;5.2;62.3
79356;SHT31;68825;51.978;5.654;2023-04-03T02:36:47;5.2;62.0
79356;SHT31;68825;51.978;5.654;2023-04-03T02:39:16;5.2;61.9
79356;SHT31;68825;51.978;5.654;2023-04-03T02:41:44;5.2;61.9
79356;SHT31;68825;51.978;5.654;2023-04-03T02:44:15;5.2;62.3
79356;SHT31;68825;51.978;5.654;2023-04-03T02:46:47;5.2;62.4
79356;SHT31;68825;51.978;5.654;2023-04-03T02:49:15;5.2;62.4
79356;SHT31;68825;51.978;5.654;2023-04-03T02:51:45;5.2;62.3
79356;SHT31;68825;51.978;5.654;2023-04-03T02:54:14;5.2;62.7
79356;SHT31;68825;51.978;5.654;2023-04-03T02:56:42;5.2;62.6
79356;SHT31;68825;51.978;5.654;2023-04-03T02:59:11;5.2;62.4
79356;SHT31;68825;51.978;5.654;2023-04-03T03:01:40;5.2;62.3
79356;SHT31;68825;51.978;5.654;2023-04-03T03:04:09;5.2;62.6
79356;SHT31;68825;51.978;5.654;2023-04-03T03:06:39;5.1;62.6
79356;SHT31;68825;51.978;5.654;2023-04-03T03:09:08;5.1;62.7
79356;SHT31;68825;51.978;5.654;2023-04-03T03:11:36;5.1;62.7
79356;SHT31;68825;51.978;5.654;2023-04-03T03:14:05;5.1;62.6
79356;SHT31;68825;51.978;5.654;2023-04-03T03:16:33;5.1;62.8
79356;SHT31;68825;51.978;5.654;2023-04-03T03:19:02;5.0;63.0
79356;SHT31;68825;51.978;5.654;2023-04-03T03:21:33;5.0;63.2
79356;SHT31;68825;51.978;5.654;2023-04-03T03:24:01;5.0;63.3
79356;SHT31;68825;51.978;5.654;2023-04-03T03:26:30;4.9;63.8
79356;SHT31;68825;51.978;5.654;2023-04-03T03:29:00;4.9;64.0
79356;SHT31;68825;51.978;5.654;2023-04-03T03:31:29;4.9;63.7
79356;SHT31;68825;51.978;5.654;2023-04-03T03:33:58;4.9;63.9
79356;SHT31;68825;51.978;5.654;2023-04-03T03:36:26;4.9;64.0
79356;SHT31;68825;51.978;5.654;2023-04-03T03:38:55;4.8;64.2
79356;SHT31;68825;51.978;5.654;2023-04-03T03:41:23;4.8;64.1
79356;SHT31;68825;51.978;5.654;2023-04-03T03:43:52;4.8;64.0
79356;SHT31;68825;51.978;5.654;2023-04-03T03:46:21;4.8;64.2
79356;SHT31;68825;51.978;5.654;2023-04-03T03:48:49;4.8;64.3
79356;SHT31;68825;51.978;5.654;2023-04-03T03:51:20;4.8;64.4
79356;SHT31;68825;51.978;5.654;2023-04-03T03:53:48;4.7;64.4
79356;SHT31;68825;51.978;5.654;2023-04-03T03:56:17;4.7;64.5
79356;SHT31;68825;51.978;5.654;2023-04-03T03:58:46;4.7;64.5
79356;SHT31;68825;51.978;5.654;2023-04-03T04:01:17;4.6;64.8
79356;SHT31;68825;51.978;5.654;2023-04-03T04:03:47;4.6;64.8
79356;SHT31;68825;51.978;5.654;2023-04-03T04:06:15;4.6;64.9
79356;SHT31;68825;51.978;5.654;2023-04-03T04:08:46;4.5;65.0
79356;SHT31;68825;51.978;5.654;2023-04-03T04:11:14;4.5;65.2
79356;SHT31;68825;51.978;5.654;2023-04-03T04:13:43;4.5;65.3
79356;SHT31;68825;51.978;5.654;2023-04-03T04:16:12;4.5;65.3
79356;SHT31;68825;51.978;5.654;2023-04-03T04:18:41;4.5;65.3
79356;SHT31;68825;51.978;5.654;2023-04-03T04:21:09;4.5;65.3
79356;SHT31;68825;51.978;5.654;2023-04-03T04:23:38;4.4;65.6
79356;SHT31;68825;51.978;5.654;2023-04-03T04:26:06;4.4;65.5
79356;SHT31;68825;51.978;5.654;2023-04-03T04:28:35;4.4;65.6
79356;SHT31;68825;51.978;5.654;2023-04-03T04:31:03;4.4;65.6
79356;SHT31;68825;51.978;5.654;2023-04-03T04:33:32;4.4;65.7
79356;SHT31;68825;51.978;5.654;2023-04-03T04:36:01;4.4;65.7
79356;SHT31;68825;51.978;5.654;2023-04-03T04:38:29;4.3;65.7
79356;SHT31;68825;51.978;5.654;2023-04-03T04:40:58;4.3;65.8
79356;SHT31;68825;51.978;5.654;2023-04-03T04:43:28;4.3;65.9
79356;SHT31;68825;51.978;5.654;2023-04-03T04:46:05;4.3;65.9
79356;SHT31;68825;51.978;5.654;2023-04-03T04:48:34;4.2;66.3
79356;SHT31;68825;51.978;5.654;2023-04-03T04:51:03;4.2;66.2
79356;SHT31;68825;51.978;5.654;2023-04-03T04:53:32;4.2;66.3
79356;SHT31;68825;51.978;5.654;2023-04-03T04:56:01;4.2;66.4
79356;SHT31;68825;51.978;5.654;2023-04-03T04:58:30;4.2;66.4
79356;SHT31;68825;51.978;5.654;2023-04-03T05:01:02;4.1;66.6
79356;SHT31;68825;51.978;5.654;2023-04-03T05:03:32;4.1;66.6
79356;SHT31;68825;51.978;5.654;2023-04-03T05:06:01;4.1;66.6
79356;SHT31;68825;51.978;5.654;2023-04-03T05:08:31;4.0;66.8
79356;SHT31;68825;51.978;5.654;2023-04-03T05:11:00;4.0;66.8
79356;SHT31;68825;51.978;5.654;2023-04-03T05:13:29;4.0;66.9
79356;SHT31;68825;51.978;5.654;2023-04-03T05:15:57;3.9;67.1
79356;SHT31;68825;51.978;5.654;2023-04-03T05:18:26;3.9;67.2
79356;SHT31;68825;51.978;5.654;2023-04-03T05:20:56;3.9;67.2
79356;SHT31;68825;51.978;5.654;2023-04-03T05:23:25;3.8;67.5
79356;SHT31;68825;51.978;5.654;2023-04-03T05:25:53;3.8;67.3
79356;SHT31;68825;51.978;5.654;2023-04-03T05:28:22;3.8;67.4
79356;SHT31;68825;51.978;5.654;2023-04-03T05:30:55;3.8;67.5
79356;SHT31;68825;51.978;5.654;2023-04-03T05:33:25;3.8;67.4
79356;SHT31;68825;51.978;5.654;2023-04-03T05:35:54;3.7;67.4
79356;SHT31;68825;51.978;5.654;2023-04-03T05:38:23;3.7;67.5
79356;SHT31;68825;51.978;5.654;2023-04-03T05:40:51;3.7;67.6
79356;SHT31;68825;51.978;5.654;2023-04-03T05:43:20;3.7;67.8
79356;SHT31;68825;51.978;5.654;2023-04-03T05:45:49;3.7;67.6
79356;SHT31;68825;51.978;5.654;2023-04-03T05:48:17;3.7;67.8
79356;SHT31;68825;51.978;5.654;2023-04-03T05:50:47;3.6;67.7
79356;SHT31;68825;51.978;5.654;2023-04-03T05:53:20;3.6;67.8
79356;SHT31;68825;51.978;5.654;2023-04-03T05:55:49;3.6;67.7
79356;SHT31;68825;51.978;5.654;2023-04-03T05:58:18;3.6;67.7
79356;SHT31;68825;51.978;5.654;2023-04-03T06:00:46;3.6;67.8
79356;SHT31;68825;51.978;5.654;2023-04-03T06:03:15;3.6;67.6
79356;SHT31;68825;51.978;5.654;2023-04-03T06:05:45;3.6;67.5
79356;SHT31;68825;51.978;5.654;2023-04-03T06:08:14;3.6;67.7
79356;SHT31;68825;51.978;5.654;2023-04-03T06:10:45;3.6;67.7
79356;SHT31;68825;51.978;5.654;2023-04-03T06:13:14;3.6;67.7
79356;SHT31;68825;51.978;5.654;2023-04-03T06:15:42;3.6;67.9
79356;SHT31;68825;51.978;5.654;2023-04-03T06:18:11;3.6;67.5
79356;SHT31;68825;51.978;5.654;2023-04-03T06:20:40;3.6;67.8
79356;SHT31;68825;51.978;5.654;2023-04-03T06:23:08;3.6;67.6
79356;SHT31;68825;51.978;5.654;2023-04-03T06:25:37;3.6;67.3
79356;SHT31;68825;51.978;5.654;2023-04-03T06:28:06;3.7;67.1
79356;SHT31;68825;51.978;5.654;2023-04-03T06:30:36;3.7;67.1
79356;SHT31;68825;51.978;5.654;2023-04-03T06:33:06;3.7;66.9
79356;SHT31;68825;51.978;5.654;2023-04-03T06:35:35;3.7;67.0
79356;SHT31;68825;51.978;5.654;2023-04-03T06:38:04;3.8;66.6
79356;SHT31;68825;51.978;5.654;2023-04-03T06:40:37;3.8;66.5
79356;SHT31;68825;51.978;5.654;2023-04-03T06:43:06;3.9;66.6
79356;SHT31;68825;51.978;5.654;2023-04-03T06:45:35;3.9;66.1
79356;SHT31;68825;51.978;5.654;2023-04-03T06:48:04;3.9;66.1
79356;SHT31;68825;51.978;5.654;2023-04-03T06:50:33;4.0;65.6
79356;SHT31;68825;51.978;5.654;2023-04-03T06:53:02;4.0;65.5
79356;SHT31;68825;51.978;5.654;2023-04-03T06:55:30;4.1;66.2
79356;SHT31;68825;51.978;5.654;2023-04-03T06:57:59;4.2;66.3
79356;SHT31;68825;51.978;5.654;2023-04-03T07:00:27;4.2;64.7
79356;SHT31;68825;51.978;5.654;2023-04-03T07:02:56;4.3;65.2
79356;SHT31;68825;51.978;5.654;2023-04-03T07:05:26;4.4;64.4
79356;SHT31;68825;51.978;5.654;2023-04-03T07:07:54;4.5;63.5
79356;SHT31;68825;51.978;5.654;2023-04-03T07:10:23;4.6;63.3
79356;SHT31;68825;51.978;5.654;2023-04-03T07:12:52;4.6;63.4
79356;SHT31;68825;51.978;5.654;2023-04-03T07:15:22;4.7;62.8
79356;SHT31;68825;51.978;5.654;2023-04-03T07:17:51;4.8;62.7
79356;SHT31;68825;51.978;5.654;2023-04-03T07:20:19;4.8;62.2
79356;SHT31;68825;51.978;5.654;2023-04-03T07:22:48;4.9;61.7
79356;SHT31;68825;51.978;5.654;2023-04-03T07:25:17;4.9;61.4
79356;SHT31;68825;51.978;5.654;2023-04-03T07:27:48;5.0;61.1
79356;SHT31;68825;51.978;5.654;2023-04-03T07:30:17;5.1;61.0
79356;SHT31;68825;51.978;5.654;2023-04-03T07:32:48;5.2;60.5
79356;SHT31;68825;51.978;5.654;2023-04-03T07:35:16;5.2;59.2
79356;SHT31;68825;51.978;5.654;2023-04-03T07:37:47;5.3;58.9
79356;SHT31;68825;51.978;5.654;2023-04-03T07:40:16;5.4;59.5
79356;SHT31;68825;51.978;5.654;2023-04-03T07:42:46;5.4;58.4
79356;SHT31;68825;51.978;5.654;2023-04-03T07:45:17;5.5;58.5
79356;SHT31;68825;51.978;5.654;2023-04-03T07:47:45;5.5;57.9
79356;SHT31;68825;51.978;5.654;2023-04-03T07:50:14;5.5;57.0
79356;SHT31;68825;51.978;5.654;2023-04-03T07:52:43;5.6;57.4
79356;SHT31;68825;51.978;5.654;2023-04-03T07:55:12;5.6;56.7
79356;SHT31;68825;51.978;5.654;2023-04-03T07:57:43;5.7;56.1
79356;SHT31;68825;51.978;5.654;2023-04-03T08:00:12;5.7;56.2
79356;SHT31;68825;51.978;5.654;2023-04-03T08:02:41;5.8;55.3
79356;SHT31;68825;51.978;5.654;2023-04-03T08:05:11;5.9;56.0
79356;SHT31;68825;51.978;5.654;2023-04-03T08:07:39;5.9;53.4
79356;SHT31;68825;51.978;5.654;2023-04-03T08:10:09;6.0;55.3
79356;SHT31;68825;51.978;5.654;2023-04-03T08:12:47;6.1;52.2
79356;SHT31;68825;51.978;5.654;2023-04-03T08:15:18;6.2;50.4
79356;SHT31;68825;51.978;5.654;2023-04-03T08:17:47;6.3;50.2
79356;SHT31;68825;51.978;5.654;2023-04-03T08:20:17;6.4;50.0
79356;SHT31;68825;51.978;5.654;2023-04-03T08:22:48;6.4;49.1
79356;SHT31;68825;51.978;5.654;2023-04-03T08:25:17;6.5;49.1
79356;SHT31;68825;51.978;5.654;2023-04-03T08:27:46;6.6;49.6
79356;SHT31;68825;51.978;5.654;2023-04-03T08:30:15;6.7;48.5
79356;SHT31;68825;51.978;5.654;2023-04-03T08:32:44;6.7;47.1
79356;SHT31;68825;51.978;5.654;2023-04-03T08:35:14;6.8;46.8
79356;SHT31;68825;51.978;5.654;2023-04-03T08:37:43;6.8;45.8
79356;SHT31;68825;51.978;5.654;2023-04-03T08:40:15;6.9;42.9
79356;SHT31;68825;51.978;5.654;2023-04-03T08:42:57;6.9;40.8
79356;SHT31;68825;51.978;5.654;2023-04-03T08:45:41;7.0;43.0
79356;SHT31;68825;51.978;5.654;2023-04-03T08:48:15;7.0;41.1
79356;SHT31;68825;51.978;5.654;2023-04-03T08:50:51;7.1;40.8
79356;SHT31;68825;51.978;5.654;2023-04-03T08:53:25;7.1;39.1
79356;SHT31;68825;51.978;5.654;2023-04-03T08:56:07;7.2;41.2
79356;SHT31;68825;51.978;5.654;2023-04-03T08:58:42;7.3;39.8
79356;SHT31;68825;51.978;5.654;2023-04-03T09:01:19;7.4;38.6
79356;SHT31;68825;51.978;5.654;2023-04-03T09:03:48;7.4;36.0
79356;SHT31;68825;51.978;5.654;2023-04-03T09:06:21;7.5;35.7
79356;SHT31;68825;51.978;5.654;2023-04-03T09:09:00;7.6;37.6
79356;SHT31;68825;51.978;5.654;2023-04-03T09:11:43;7.6;35.2
79356;SHT31;68825;51.978;5.654;2023-04-03T09:14:21;7.7;34.9
79356;SHT31;68825;51.978;5.654;2023-04-03T09:16:56;7.8;31.2
79356;SHT31;68825;51.978;5.654;2023-04-03T09:19:36;7.8;32.4
79356;SHT31;68825;51.978;5.654;2023-04-03T09:22:16;7.9;31.8
79356;SHT31;68825;51.978;5.654;2023-04-03T09:24:52;7.9;32.0
79356;SHT31;68825;51.978;5.654;2023-04-03T09:27:26;7.9;30.1
79356;SHT31;68825;51.978;5.654;2023-04-03T09:29:56;8.0;30.8
79356;SHT31;68825;51.978;5.654;2023-04-03T09:32:29;8.0;30.1
79356;SHT31;68825;51.978;5.654;2023-04-03T09:35:02;8.1;29.8
79356;SHT31;68825;51.978;5.654;2023-04-03T09:37:37;8.1;30.4
79356;SHT31;68825;51.978;5.654;2023-04-03T09:41:02;8.2;30.9
79356;SHT31;68825;51.978;5.654;2023-04-03T09:43:31;8.3;28.9
79356;SHT31;68825;51.978;5.654;2023-04-03T09:46:20;8.3;28.7
79356;SHT31;68825;51.978;5.654;2023-04-03T09:48:58;8.4;28.9
79356;SHT31;68825;51.978;5.654;2023-04-03T09:51:28;8.4;31.0
79356;SHT31;68825;51.978;5.654;2023-04-03T09:53:58;8.4;32.1
79356;SHT31;68825;51.978;5.654;2023-04-03T09:56:29;8.5;30.3
79356;SHT31;68825;51.978;5.654;2023-04-03T09:59:13;8.6;31.7
79356;SHT31;68825;51.978;5.654;2023-04-03T10:01:58;8.7;29.5
79356;SHT31;68825;51.978;5.654;2023-04-03T10:04:40;8.7;30.8
79356;SHT31;68825;51.978;5.654;2023-04-03T10:07:30;8.8;30.0
79356;SHT31;68825;51.978;5.654;2023-04-03T10:10:02;8.9;30.7
79356;SHT31;68825;51.978;5.654;2023-04-03T10:12:32;8.9;30.6
79356;SHT31;68825;51.978;5.654;2023-04-03T10:15:02;9.0;29.9
79356;SHT31;68825;51.978;5.654;2023-04-03T10:17:48;9.0;29.6
79356;SHT31;68825;51.978;5.654;2023-04-03T10:20:27;9.1;29.7
79356;SHT31;68825;51.978;5.654;2023-04-03T10:23:05;9.1;30.9
79356;SHT31;68825;51.978;5.654;2023-04-03T10:25:41;9.1;31.0
79356;SHT31;68825;51.978;5.654;2023-04-03T10:28:20;9.2;28.4
79356;SHT31;68825;51.978;5.654;2023-04-03T10:30:58;9.2;30.2
79356;SHT31;68825;51.978;5.654;2023-04-03T10:33:41;9.2;28.2
79356;SHT31;68825;51.978;5.654;2023-04-03T10:36:17;9.2;32.0
79356;SHT31;68825;51.978;5.654;2023-04-03T10:38:59;9.3;31.4
79356;SHT31;68825;51.978;5.654;2023-04-03T10:41:42;9.3;31.1
79356;SHT31;68825;51.978;5.654;2023-04-03T10:44:26;9.4;31.7
79356;SHT31;68825;51.978;5.654;2023-04-03T10:47:04;9.5;32.4
79356;SHT31;68825;51.978;5.654;2023-04-03T10:49:47;9.5;33.2
79356;SHT31;68825;51.978;5.654;2023-04-03T10:52:23;9.6;33.2
79356;SHT31;68825;51.978;5.654;2023-04-03T10:55:00;9.7;33.5
79356;SHT31;68825;51.978;5.654;2023-04-03T10:57:31;9.8;33.7
79356;SHT31;68825;51.978;5.654;2023-04-03T11:00:03;9.9;31.6
79356;SHT31;68825;51.978;5.654;2023-04-03T11:02:37;9.9;33.4
79356;SHT31;68825;51.978;5.654;2023-04-03T11:05:21;10.0;33.4
79356;SHT31;68825;51.978;5.654;2023-04-03T11:07:53;10.0;32.1
79356;SHT31;68825;51.978;5.654;2023-04-03T11:10:29;10.1;32.5
79356;SHT31;68825;51.978;5.654;2023-04-03T11:13:10;10.1;33.9
79356;SHT31;68825;51.978;5.654;2023-04-03T11:15:40;10.2;34.0
79356;SHT31;68825;51.978;5.654;2023-04-03T11:18:14;10.3;32.1
79356;SHT31;68825;51.978;5.654;2023-04-03T11:20:53;10.4;33.6
79356;SHT31;68825;51.978;5.654;2023-04-03T11:23:31;10.4;34.9
79356;SHT31;68825;51.978;5.654;2023-04-03T11:26:12;10.5;32.6
79356;SHT31;68825;51.978;5.654;2023-04-03T11:28:42;10.6;31.6
79356;SHT31;68825;51.978;5.654;2023-04-03T11:31:26;10.6;31.2
79356;SHT31;68825;51.978;5.654;2023-04-03T11:34:07;10.6;34.5
79356;SHT31;68825;51.978;5.654;2023-04-03T11:36:41;10.7;31.2
79356;SHT31;68825;51.978;5.654;2023-04-03T11:39:22;10.7;32.2
79356;SHT31;68825;51.978;5.654;2023-04-03T11:41:52;10.8;31.9
79356;SHT31;68825;51.978;5.654;2023-04-03T11:44:34;10.8;32.9
79356;SHT31;68825;51.978;5.654;2023-04-03T11:47:04;10.9;30.6
79356;SHT31;68825;51.978;5.654;2023-04-03T11:49:53;10.9;31.6
79356;SHT31;68825;51.978;5.654;2023-04-03T11:53:45;11.0;32.1
79356;SHT31;68825;51.978;5.654;2023-04-03T11:56:30;11.1;32.0
79356;SHT31;68825;51.978;5.654;2023-04-03T11:59:22;11.1;30.2
79356;SHT31;68825;51.978;5.654;2023-04-03T12:01:53;11.2;30.1
79356;SHT31;68825;51.978;5.654;2023-04-03T12:04:25;11.2;29.8
79356;SHT31;68825;51.978;5.654;2023-04-03T12:07:38;11.3;29.1
79356;SHT31;68825;51.978;5.654;2023-04-03T12:10:18;11.3;32.1
79356;SHT31;68825;51.978;5.654;2023-04-03T12:13:00;11.3;31.7
79356;SHT31;68825;51.978;5.654;2023-04-03T12:16:03;11.4;30.6
79356;SHT31;68825;51.978;5.654;2023-04-03T12:18:57;11.4;30.6
79356;SHT31;68825;51.978;5.654;2023-04-03T12:22:07;11.4;32.6
79356;SHT31;68825;51.978;5.654;2023-04-03T12:24:38;11.4;31.5
79356;SHT31;68825;51.978;5.654;2023-04-03T12:27:20;11.5;30.8
79356;SHT31;68825;51.978;5.654;2023-04-03T12:29:55;11.6;29.7
79356;SHT31;68825;51.978;5.654;2023-04-03T12:32:48;11.6;29.3
79356;SHT31;68825;51.978;5.654;2023-04-03T12:35:26;11.6;29.4
79356;SHT31;68825;51.978;5.654;2023-04-03T12:38:20;11.7;29.2
79356;SHT31;68825;51.978;5.654;2023-04-03T12:41:02;11.7;32.7
79356;SHT31;68825;51.978;5.654;2023-04-03T12:43:46;11.7;29.4
79356;SHT31;68825;51.978;5.654;2023-04-03T12:46:20;11.8;29.7
79356;SHT31;68825;51.978;5.654;2023-04-03T12:48:51;11.8;31.9
79356;SHT31;68825;51.978;5.654;2023-04-03T12:51:26;11.9;32.2
79356;SHT31;68825;51.978;5.654;2023-04-03T12:54:02;11.9;31.9
79356;SHT31;68825;51.978;5.654;2023-04-03T12:56:34;12.0;32.5
79356;SHT31;68825;51.978;5.654;2023-04-03T12:59:16;12.1;32.9
79356;SHT31;68825;51.978;5.654;2023-04-03T13:01:55;12.2;31.9
79356;SHT31;68825;51.978;5.654;2023-04-03T13:04:25;12.3;31.3
79356;SHT31;68825;51.978;5.654;2023-04-03T13:06:54;12.3;29.6
79356;SHT31;68825;51.978;5.654;2023-04-03T13:09:25;12.4;31.7
79356;SHT31;68825;51.978;5.654;2023-04-03T13:11:59;12.4;30.5
79356;SHT31;68825;51.978;5.654;2023-04-03T13:14:31;12.4;31.0
79356;SHT31;68825;51.978;5.654;2023-04-03T13:17:04;12.4;30.7
79356;SHT31;68825;51.978;5.654;2023-04-03T13:19:33;12.4;28.8
79356;SHT31;68825;51.978;5.654;2023-04-03T13:22:04;12.3;28.4
79356;SHT31;68825;51.978;5.654;2023-04-03T13:24:37;12.3;28.3
79356;SHT31;68825;51.978;5.654;2023-04-03T13:27:06;12.3;31.0
79356;SHT31;68825;51.978;5.654;2023-04-03T13:29:37;12.3;29.6
79356;SHT31;68825;51.978;5.654;2023-04-03T13:32:06;12.3;28.7
79356;SHT31;68825;51.978;5.654;2023-04-03T13:34:42;12.3;30.3
79356;SHT31;68825;51.978;5.654;2023-04-03T13:37:23;12.3;31.0
79356;SHT31;68825;51.978;5.654;2023-04-03T13:40:03;12.4;32.7
79356;SHT31;68825;51.978;5.654;2023-04-03T13:42:35;12.5;32.6
79356;SHT31;68825;51.978;5.654;2023-04-03T13:45:16;12.6;32.0
79356;SHT31;68825;51.978;5.654;2023-04-03T13:47:48;12.7;30.2
79356;SHT31;68825;51.978;5.654;2023-04-03T13:50:20;12.8;30.7
79356;SHT31;68825;51.978;5.654;2023-04-03T13:52:53;12.8;29.7
79356;SHT31;68825;51.978;5.654;2023-04-03T13:55:26;12.8;30.2
79356;SHT31;68825;51.978;5.654;2023-04-03T13:57:58;12.9;31.0
79356;SHT31;68825;51.978;5.654;2023-04-03T14:00:37;12.9;32.5
79356;SHT31;68825;51.978;5.654;2023-04-03T14:03:19;12.9;31.5
79356;SHT31;68825;51.978;5.654;2023-04-03T14:05:48;13.0;29.1
79356;SHT31;68825;51.978;5.654;2023-04-03T14:08:17;13.0;29.8
79356;SHT31;68825;51.978;5.654;2023-04-03T14:10:47;13.1;30.2
79356;SHT31;68825;51.978;5.654;2023-04-03T14:13:18;13.1;31.2
79356;SHT31;68825;51.978;5.654;2023-04-03T14:15:48;13.1;29.3
79356;SHT31;68825;51.978;5.654;2023-04-03T14:18:19;13.2;28.8
79356;SHT31;68825;51.978;5.654;2023-04-03T14:20:49;13.1;28.8
79356;SHT31;68825;51.978;5.654;2023-04-03T14:23:18;13.1;30.7
79356;SHT31;68825;51.978;5.654;2023-04-03T14:25:47;13.1;30.7
79356;SHT31;68825;51.978;5.654;2023-04-03T14:28:18;13.1;29.0
79356;SHT31;68825;51.978;5.654;2023-04-03T14:30:50;13.1;30.2
79356;SHT31;68825;51.978;5.654;2023-04-03T14:33:21;13.1;31.0
79356;SHT31;68825;51.978;5.654;2023-04-03T14:35:50;13.1;30.5
79356;SHT31;68825;51.978;5.654;2023-04-03T14:38:27;13.1;29.4
79356;SHT31;68825;51.978;5.654;2023-04-03T14:40:57;13.1;29.7
79356;SHT31;68825;51.978;5.654;2023-04-03T14:43:28;13.0;31.6
79356;SHT31;68825;51.978;5.654;2023-04-03T14:45:57;13.0;29.3
79356;SHT31;68825;51.978;5.654;2023-04-03T14:48:27;13.0;30.0
79356;SHT31;68825;51.978;5.654;2023-04-03T14:50:57;12.9;30.7
79356;SHT31;68825;51.978;5.654;2023-04-03T14:53:26;12.8;30.7
79356;SHT31;68825;51.978;5.654;2023-04-03T14:55:57;12.8;31.8
79356;SHT31;68825;51.978;5.654;2023-04-03T14:58:27;12.8;32.3
79356;SHT31;68825;51.978;5.654;2023-04-03T15:00:57;12.8;32.2
79356;SHT31;68825;51.978;5.654;2023-04-03T15:03:26;12.8;31.6
79356;SHT31;68825;51.978;5.654;2023-04-03T15:05:54;12.8;32.9
79356;SHT31;68825;51.978;5.654;2023-04-03T15:08:26;12.9;32.3
79356;SHT31;68825;51.978;5.654;2023-04-03T15:10:57;12.9;31.4
79356;SHT31;68825;51.978;5.654;2023-04-03T15:13:27;12.9;33.7
79356;SHT31;68825;51.978;5.654;2023-04-03T15:15:55;12.9;33.2
79356;SHT31;68825;51.978;5.654;2023-04-03T15:18:27;13.0;32.9
79356;SHT31;68825;51.978;5.654;2023-04-03T15:20:56;13.0;33.5
79356;SHT31;68825;51.978;5.654;2023-04-03T15:23:25;13.0;31.5
79356;SHT31;68825;51.978;5.654;2023-04-03T15:25:55;13.0;31.2
79356;SHT31;68825;51.978;5.654;2023-04-03T15:28:28;12.9;32.1
79356;SHT31;68825;51.978;5.654;2023-04-03T15:30:58;12.9;32.2
79356;SHT31;68825;51.978;5.654;2023-04-03T15:33:27;12.9;31.4
79356;SHT31;68825;51.978;5.654;2023-04-03T15:35:56;12.8;30.8
79356;SHT31;68825;51.978;5.654;2023-04-03T15:38:25;12.6;31.6
79356;SHT31;68825;51.978;5.654;2023-04-03T15:40:54;12.5;31.4
79356;SHT31;68825;51.978;5.654;2023-04-03T15:43:24;12.4;33.7
79356;SHT31;68825;51.978;5.654;2023-04-03T15:45:56;12.3;32.2
79356;SHT31;68825;51.978;5.654;2023-04-03T15:48:26;12.2;32.8
79356;SHT31;68825;51.978;5.654;2023-04-03T15:50:56;12.1;32.8
79356;SHT31;68825;51.978;5.654;2023-04-03T15:53:25;12.1;33.9
79356;SHT31;68825;51.978;5.654;2023-04-03T15:55:53;12.1;33.4
79356;SHT31;68825;51.978;5.654;2023-04-03T15:58:22;12.0;32.4
79356;SHT31;68825;51.978;5.654;2023-04-03T16:00:51;12.0;33.0
79356;SHT31;68825;51.978;5.654;2023-04-03T16:03:21;12.0;33.9
79356;SHT31;68825;51.978;5.654;2023-04-03T16:05:53;12.0;34.8
79356;SHT31;68825;51.978;5.654;2023-04-03T16:08:24;12.1;33.3
79356;SHT31;68825;51.978;5.654;2023-04-03T16:10:55;12.1;32.9
79356;SHT31;68825;51.978;5.654;2023-04-03T16:13:24;12.1;33.3
79356;SHT31;68825;51.978;5.654;2023-04-03T16:15:54;12.1;34.4
79356;SHT31;68825;51.978;5.654;2023-04-03T16:18:23;12.0;33.2
79356;SHT31;68825;51.978;5.654;2023-04-03T16:20:52;12.0;33.1
79356;SHT31;68825;51.978;5.654;2023-04-03T16:23:21;11.9;34.0
79356;SHT31;68825;51.978;5.654;2023-04-03T16:25:50;11.9;33.9
79356;SHT31;68825;51.978;5.654;2023-04-03T16:28:19;11.9;33.2
79356;SHT31;68825;51.978;5.654;2023-04-03T16:30:48;11.8;32.8
79356;SHT31;68825;51.978;5.654;2023-04-03T16:33:17;11.7;33.5
79356;SHT31;68825;51.978;5.654;2023-04-03T16:35:48;11.7;33.5
79356;SHT31;68825;51.978;5.654;2023-04-03T16:38:16;11.6;34.5
79356;SHT31;68825;51.978;5.654;2023-04-03T16:40:49;11.6;35.0
79356;SHT31;68825;51.978;5.654;2023-04-03T16:43:18;11.5;35.0
79356;SHT31;68825;51.978;5.654;2023-04-03T16:45:47;11.5;33.6